Time;durP1;ratioP1;P1;durP2;ratioP2;P2;SDS_P1;SDS_P2;PMS_P1;PMS_P2;Temp;Humidity;BMP_temperature;BMP_pressure;BME280_temperature;BME280_humidity;BME280_pressure;Samples;Min_cycle;Max_cycle;Signal;HPM_P1;HPM_P2
2022/03/03 00:00:15;;;;;;;12.00;5.67;;;2.30;99.90;;;;;;4986442;28;20235;-91
2022/03/03 00:02:42;;;;;;;10.23;6.80;;;2.20;99.90;;;;;;4971312;28;20720;-93
2022/03/03 00:05:08;;;;;;;4.80;4.43;;;2.10;99.90;;;;;;4985238;28;20223;-92
2022/03/03 00:07:35;;;;;;;7.90;7.13;;;2.10;99.90;;;;;;4985307;28;20322;-91
2022/03/03 00:10:01;;;;;;;9.77;8.87;;;2.00;99.90;;;;;;4969832;28;20779;-93
2022/03/03 00:12:27;;;;;;;11.67;7.97;;;1.90;99.90;;;;;;4985303;28;20234;-90
2022/03/03 00:14:52;;;;;;;9.90;7.00;;;1.90;99.90;;;;;;4985050;28;20199;-91
2022/03/03 00:17:18;;;;;;;12.90;6.27;;;1.90;99.90;;;;;;4994754;28;20645;-92
2022/03/03 00:19:45;;;;;;;5.73;5.23;;;1.80;99.90;;;;;;4995907;28;20218;-88
2022/03/03 00:22:11;;;;;;;14.80;6.73;;;1.60;99.90;;;;;;4970082;28;20669;-90
2022/03/03 00:24:36;;;;;;;6.60;6.10;;;1.60;99.90;;;;;;4995849;28;20307;-93
2022/03/03 00:27:04;;;;;;;5.73;5.13;;;1.60;99.90;;;;;;4967299;28;20310;-88
2022/03/03 00:29:29;;;;;;;10.93;9.17;;;1.40;99.90;;;;;;4986261;28;20568;-92
2022/03/03 00:31:55;;;;;;;8.03;5.77;;;1.50;99.90;;;;;;4984747;28;20215;-91
2022/03/03 00:34:21;;;;;;;15.50;7.17;;;1.40;99.90;;;;;;4986279;28;20219;-93
2022/03/03 00:36:47;;;;;;;10.07;5.93;;;1.40;99.90;;;;;;4969502;28;20259;-93
2022/03/03 00:39:12;;;;;;;7.03;5.33;;;1.40;99.90;;;;;;5004552;28;20519;-92
2022/03/03 00:41:38;;;;;;;9.73;6.70;;;1.50;99.90;;;;;;5005384;28;20241;-92
2022/03/03 00:44:06;;;;;;;14.33;6.17;;;1.40;99.90;;;;;;5004119;28;20210;-93
2022/03/03 00:46:33;;;;;;;10.77;5.77;;;1.50;99.90;;;;;;4988356;28;20222;-92
2022/03/03 00:48:59;;;;;;;11.70;7.37;;;1.50;99.90;;;;;;4988411;28;20214;-90
2022/03/03 00:51:25;;;;;;;9.77;8.87;;;1.60;99.90;;;;;;5004980;28;20567;-90
2022/03/03 00:53:51;;;;;;;7.33;6.73;;;1.70;99.90;;;;;;4997876;28;20200;-89
2022/03/03 00:56:18;;;;;;;8.37;4.97;;;1.80;99.90;;;;;;5004520;28;20195;-90
2022/03/03 00:58:44;;;;;;;7.43;5.67;;;1.80;99.90;;;;;;5003756;28;20227;-92
2022/03/03 01:01:10;;;;;;;9.53;6.13;;;1.80;99.90;;;;;;5004488;28;20215;-93
2022/03/03 01:03:35;;;;;;;11.00;9.80;;;1.90;99.90;;;;;;5003544;28;20238;-91
2022/03/03 01:06:01;;;;;;;6.67;5.83;;;1.90;99.90;;;;;;4996681;28;20241;-89
2022/03/03 01:08:27;;;;;;;5.83;5.37;;;1.90;99.90;;;;;;4989691;28;20239;-92
2022/03/03 01:10:53;;;;;;;9.13;8.23;;;2.00;99.90;;;;;;5011906;28;20577;-89
2022/03/03 01:13:20;;;;;;;16.23;7.20;;;1.90;99.90;;;;;;5005331;28;20219;-92
2022/03/03 01:15:46;;;;;;;6.27;5.63;;;1.90;99.90;;;;;;5020128;28;20247;-92
2022/03/03 01:18:12;;;;;;;6.43;5.97;;;1.90;99.90;;;;;;4989140;28;20242;-92
2022/03/03 01:20:37;;;;;;;7.20;6.23;;;1.80;99.90;;;;;;5004366;28;20201;-90
2022/03/03 01:23:03;;;;;;;7.80;7.33;;;1.80;99.90;;;;;;5003564;28;20227;-93
2022/03/03 01:25:29;;;;;;;11.00;6.17;;;1.70;99.90;;;;;;5013461;28;20227;-90
2022/03/03 01:27:55;;;;;;;8.00;5.07;;;1.70;99.90;;;;;;5002974;28;20230;-92
2022/03/03 01:30:21;;;;;;;8.67;5.33;;;1.70;99.90;;;;;;5015078;28;20415;-91
2022/03/03 01:32:46;;;;;;;7.40;5.50;;;1.70;99.90;;;;;;5004577;28;20628;-93
2022/03/03 01:35:12;;;;;;;14.57;6.10;;;1.70;99.90;;;;;;4978280;28;20242;-92
2022/03/03 01:37:38;;;;;;;15.13;6.67;;;1.70;99.90;;;;;;4994992;28;20700;-92
2022/03/03 01:40:05;;;;;;;8.00;4.20;;;1.60;99.90;;;;;;4978899;28;20227;-92
2022/03/03 01:42:31;;;;;;;7.67;7.03;;;1.50;99.90;;;;;;5016578;28;20246;-94
2022/03/03 01:44:56;;;;;;;8.87;6.00;;;1.50;99.90;;;;;;4978420;28;20233;-90
2022/03/03 01:47:25;;;;;;;10.43;5.70;;;1.50;99.90;;;;;;4989024;28;20280;-93
2022/03/03 01:49:53;;;;;;;9.83;5.53;;;1.50;99.90;;;;;;5013062;28;20293;-91
2022/03/03 01:52:19;;;;;;;29.63;7.80;;;1.50;99.90;;;;;;5014767;28;20223;-94
2022/03/03 01:54:46;;;;;;;12.83;9.70;;;1.60;99.90;;;;;;5020286;28;20299;-91
2022/03/03 01:57:11;;;;;;;6.33;5.73;;;1.50;99.90;;;;;;5002404;28;20226;-91
2022/03/03 01:59:38;;;;;;;6.97;6.33;;;1.50;99.90;;;;;;4988487;28;20191;-91
2022/03/03 02:02:07;;;;;;;18.17;6.07;;;1.60;99.90;;;;;;5003771;28;20229;-91
2022/03/03 02:04:33;;;;;;;15.43;7.57;;;1.60;99.90;;;;;;5006344;28;20214;-92
2022/03/03 02:07:00;;;;;;;10.37;6.37;;;1.50;99.90;;;;;;4988592;28;20230;-93
2022/03/03 02:09:26;;;;;;;9.40;6.97;;;1.40;99.90;;;;;;5013668;28;20363;-89
2022/03/03 02:11:52;;;;;;;15.80;5.80;;;1.40;99.90;;;;;;4988334;28;20190;-92
2022/03/03 02:14:18;;;;;;;14.90;6.37;;;1.30;99.90;;;;;;5019279;28;20361;-93
2022/03/03 02:16:44;;;;;;;10.60;5.70;;;1.40;99.90;;;;;;4987336;28;20218;-92
2022/03/03 02:19:18;;;;;;;5.70;5.10;;;1.40;99.90;;;;;;4989839;28;20266;-92
2022/03/03 02:21:50;;;;;;;8.23;5.90;;;1.40;99.90;;;;;;5005769;28;20207;-92
2022/03/03 02:24:17;;;;;;;9.17;5.73;;;1.50;99.90;;;;;;4989224;28;20230;-91
2022/03/03 02:26:45;;;;;;;12.30;8.27;;;1.40;99.90;;;;;;5005320;28;20283;-94
2022/03/03 02:29:11;;;;;;;10.43;6.57;;;1.50;99.90;;;;;;5008911;28;20215;-95
2022/03/03 02:31:36;;;;;;;12.93;7.27;;;1.50;99.90;;;;;;5015298;28;20218;-91
2022/03/03 02:34:02;;;;;;;14.47;5.93;;;1.40;99.90;;;;;;5003665;28;20223;-93
2022/03/03 02:36:29;;;;;;;7.10;6.60;;;1.50;99.90;;;;;;5016595;28;20268;-93
2022/03/03 02:39:00;;;;;;;5.40;4.70;;;1.50;99.90;;;;;;4989192;28;20227;-95
2022/03/03 02:41:28;;;;;;;10.37;8.93;;;1.50;99.90;;;;;;5006065;28;20282;-93
2022/03/03 02:43:54;;;;;;;7.40;6.63;;;1.50;99.90;;;;;;5017392;28;20222;-94
2022/03/03 02:46:20;;;;;;;9.00;6.27;;;1.50;99.90;;;;;;5004903;28;20206;-90
2022/03/03 02:48:47;;;;;;;9.83;5.33;;;1.40;99.90;;;;;;5012627;28;20261;-91
2022/03/03 02:51:12;;;;;;;7.97;7.10;;;1.30;99.90;;;;;;5014221;28;20469;-91
2022/03/03 02:53:38;;;;;;;11.40;8.13;;;1.30;99.90;;;;;;4996473;28;20733;-94
2022/03/03 02:56:05;;;;;;;7.60;6.13;;;1.30;99.90;;;;;;5019275;28;20246;-95
2022/03/03 02:58:31;;;;;;;6.23;4.73;;;1.20;99.90;;;;;;4992239;28;20242;-90
2022/03/03 03:00:58;;;;;;;5.43;5.07;;;1.20;99.90;;;;;;5011453;28;20250;-93
2022/03/03 03:03:24;;;;;;;10.97;9.33;;;1.10;99.90;;;;;;5014503;28;20223;-94
2022/03/03 03:05:49;;;;;;;7.80;7.10;;;1.10;99.90;;;;;;5013932;28;20195;-91
2022/03/03 03:08:16;;;;;;;7.90;6.63;;;0.90;99.90;;;;;;4998227;28;20234;-93
2022/03/03 03:10:42;;;;;;;26.37;7.03;;;1.00;99.90;;;;;;4998055;28;20259;-90
2022/03/03 03:13:09;;;;;;;8.60;6.23;;;0.90;99.90;;;;;;5033271;28;20217;-90
2022/03/03 03:15:35;;;;;;;7.90;4.87;;;0.80;99.90;;;;;;5030084;28;20257;-89
2022/03/03 03:18:18;;;;;;;7.50;6.27;;;0.80;99.90;;;;;;5027591;28;20179;-91
2022/03/03 03:20:46;;;;;;;11.80;8.80;;;0.90;99.90;;;;;;5037880;28;20171;-92
2022/03/03 03:23:15;;;;;;;5.80;5.30;;;0.70;99.90;;;;;;5025416;28;20234;-92
2022/03/03 03:25:43;;;;;;;8.53;6.60;;;0.70;99.90;;;;;;5009380;28;20215;-93
2022/03/03 03:28:14;;;;;;;9.60;6.67;;;0.60;99.90;;;;;;5012752;28;20246;-88
2022/03/03 03:30:41;;;;;;;8.83;7.30;;;0.50;99.90;;;;;;5022516;28;20258;-94
2022/03/03 03:33:07;;;;;;;5.70;5.27;;;0.40;99.90;;;;;;5024071;28;20195;-86
2022/03/03 03:35:33;;;;;;;8.43;6.17;;;0.40;99.90;;;;;;5018340;28;20258;-95
2022/03/03 03:38:00;;;;;;;8.90;8.00;;;0.40;99.90;;;;;;5011764;28;20717;-93
2022/03/03 03:40:25;;;;;;;15.27;5.97;;;0.30;99.90;;;;;;5012150;28;20234;-92
2022/03/03 03:42:51;;;;;;;6.67;6.07;;;0.30;99.90;;;;;;4994537;28;20260;-94
2022/03/03 03:45:17;;;;;;;6.60;6.17;;;0.30;99.90;;;;;;5020226;28;20542;-90
2022/03/03 03:47:43;;;;;;;6.00;5.50;;;0.40;99.90;;;;;;5017760;28;20285;-95
2022/03/03 03:50:11;;;;;;;7.13;4.47;;;0.30;99.90;;;;;;5007457;28;20281;-92
2022/03/03 03:52:38;;;;;;;8.93;4.77;;;0.20;99.90;;;;;;5014549;28;20214;-91
2022/03/03 03:55:06;;;;;;;6.17;5.57;;;0.30;99.90;;;;;;4991394;28;20273;-91
2022/03/03 03:57:32;;;;;;;6.80;5.57;;;0.50;99.90;;;;;;4990600;28;20238;-94
2022/03/03 03:59:58;;;;;;;7.80;3.13;;;0.70;99.90;;;;;;5016341;28;20187;-90
2022/03/03 04:02:24;;;;;;;6.77;6.27;;;0.80;99.90;;;;;;4997658;28;20187;-92
2022/03/03 04:04:50;;;;;;;9.57;5.97;;;1.00;99.90;;;;;;5016126;28;20214;-92
2022/03/03 04:07:16;;;;;;;8.80;5.87;;;1.00;99.90;;;;;;5005045;28;20376;-90
2022/03/03 04:09:41;;;;;;;5.97;5.03;;;1.00;99.90;;;;;;5016679;28;20318;-92
2022/03/03 04:12:08;;;;;;;4.77;3.23;;;1.10;99.90;;;;;;4983638;28;20210;-94
2022/03/03 04:14:33;;;;;;;11.27;7.23;;;1.00;99.90;;;;;;5005646;28;20266;-91
2022/03/03 04:16:59;;;;;;;12.07;4.97;;;1.00;99.90;;;;;;4986853;28;20223;-93
2022/03/03 04:19:25;;;;;;;5.00;4.33;;;1.00;99.90;;;;;;5006328;28;20291;-92
2022/03/03 04:21:51;;;;;;;6.13;5.60;;;1.00;99.90;;;;;;5016502;28;20218;-94
2022/03/03 04:24:16;;;;;;;4.40;3.03;;;0.80;99.90;;;;;;5005521;28;20266;-93
2022/03/03 04:26:42;;;;;;;6.27;5.23;;;0.90;99.90;;;;;;5005387;28;20219;-88
2022/03/03 04:29:08;;;;;;;7.43;4.40;;;0.90;99.90;;;;;;5003709;28;20235;-90
2022/03/03 04:31:34;;;;;;;16.83;5.23;;;1.10;99.90;;;;;;5005403;28;20301;-91
2022/03/03 04:33:59;;;;;;;3.97;3.77;;;0.90;99.90;;;;;;4987424;28;20305;-96
2022/03/03 04:36:25;;;;;;;4.83;4.43;;;1.10;99.90;;;;;;4989518;28;20235;-89
2022/03/03 04:38:51;;;;;;;3.97;2.97;;;1.00;99.90;;;;;;4989161;28;20223;-93
2022/03/03 04:41:19;;;;;;;6.10;4.30;;;1.10;99.90;;;;;;5006847;28;20187;-91
2022/03/03 04:43:44;;;;;;;8.90;6.10;;;1.00;99.90;;;;;;5014818;28;20218;-91
2022/03/03 04:46:10;;;;;;;3.70;3.37;;;1.00;99.90;;;;;;4982424;28;20223;-92
2022/03/03 04:48:36;;;;;;;5.23;4.97;;;1.00;99.90;;;;;;4989544;28;20234;-92
2022/03/03 04:51:02;;;;;;;10.17;7.80;;;0.90;99.90;;;;;;5014358;28;20202;-91
2022/03/03 04:53:28;;;;;;;3.70;2.90;;;1.00;99.90;;;;;;5004555;28;20187;-92
2022/03/03 04:55:55;;;;;;;6.93;3.57;;;0.90;99.90;;;;;;5004976;28;20703;-92
2022/03/03 04:58:21;;;;;;;5.00;4.23;;;1.00;99.90;;;;;;5005165;28;20880;-90
2022/03/03 05:00:47;;;;;;;6.73;5.77;;;0.90;99.90;;;;;;4986532;28;20225;-94
2022/03/03 05:03:13;;;;;;;6.17;3.73;;;0.90;99.90;;;;;;5016158;28;20234;-90
2022/03/03 05:05:38;;;;;;;8.00;4.33;;;0.90;99.90;;;;;;4989122;28;20202;-93
2022/03/03 05:08:04;;;;;;;5.77;5.10;;;1.00;99.90;;;;;;4973246;28;20229;-94
2022/03/03 05:10:31;;;;;;;10.90;5.97;;;0.90;99.90;;;;;;4992258;28;20227;-92
2022/03/03 05:12:57;;;;;;;8.37;6.90;;;0.80;99.90;;;;;;4989962;28;20634;-93
2022/03/03 05:15:23;;;;;;;24.47;4.63;;;0.80;99.90;;;;;;5021693;28;20215;-94
2022/03/03 05:17:49;;;;;;;11.13;7.37;;;0.80;99.90;;;;;;5013961;28;20222;-91
2022/03/03 05:20:15;;;;;;;5.27;4.97;;;0.70;99.90;;;;;;4989048;28;20238;-92
2022/03/03 05:22:41;;;;;;;9.10;5.17;;;0.60;99.90;;;;;;4987927;28;20687;-93
2022/03/03 05:25:08;;;;;;;4.73;4.30;;;0.60;99.90;;;;;;5003535;28;20679;-94
2022/03/03 05:27:34;;;;;;;9.23;5.80;;;0.50;99.90;;;;;;4980457;28;20309;-93
2022/03/03 05:30:00;;;;;;;8.43;7.63;;;0.50;99.90;;;;;;5013590;28;20318;-93
2022/03/03 05:32:26;;;;;;;6.73;4.13;;;0.50;99.90;;;;;;4988955;28;20195;-95
2022/03/03 05:34:52;;;;;;;14.07;6.60;;;0.40;99.90;;;;;;4988359;28;20469;-92
2022/03/03 05:37:24;;;;;;;6.03;5.63;;;0.30;99.90;;;;;;4990616;28;20218;-90
2022/03/03 05:39:51;;;;;;;12.00;7.97;;;0.20;99.90;;;;;;5005967;28;20538;-93
2022/03/03 05:42:19;;;;;;;8.07;4.50;;;0.20;99.90;;;;;;4989885;28;20229;-92
2022/03/03 05:44:49;;;;;;;9.83;5.77;;;0.30;99.90;;;;;;4990020;28;20201;-92
2022/03/03 05:47:15;;;;;;;4.57;4.17;;;0.40;99.90;;;;;;5006311;28;20537;-95
2022/03/03 05:49:43;;;;;;;7.03;5.77;;;0.40;99.90;;;;;;4989064;28;20218;-92
2022/03/03 05:52:13;;;;;;;7.33;4.70;;;0.50;99.90;;;;;;5037012;28;20310;-90
2022/03/03 05:54:39;;;;;;;10.80;7.00;;;0.50;99.90;;;;;;5031470;28;20218;-89
2022/03/03 05:57:12;;;;;;;11.07;6.07;;;0.40;99.90;;;;;;4997417;28;20193;-93
2022/03/03 05:59:41;;;;;;;4.17;3.73;;;0.40;99.90;;;;;;5034971;28;20285;-92
2022/03/03 06:02:08;;;;;;;5.67;5.23;;;0.40;99.90;;;;;;5032541;28;20246;-92
2022/03/03 06:04:38;;;;;;;5.87;5.37;;;0.40;99.90;;;;;;4996297;28;20214;-91
2022/03/03 06:07:10;;;;;;;7.63;5.53;;;0.30;99.90;;;;;;5024692;28;20230;-93
2022/03/03 06:09:37;;;;;;;4.40;4.00;;;0.30;99.90;;;;;;5013520;28;20254;-89
2022/03/03 06:12:14;;;;;;;4.17;3.80;;;0.30;99.90;;;;;;5009140;28;20274;-92
2022/03/03 06:14:44;;;;;;;10.63;5.63;;;0.20;99.90;;;;;;5010597;28;20255;-94
2022/03/03 06:17:10;;;;;;;4.17;3.87;;;0.20;99.90;;;;;;5011389;28;20222;-95
2022/03/03 06:19:41;;;;;;;6.83;6.30;;;0.20;99.90;;;;;;4996203;28;20216;-96
2022/03/03 06:22:08;;;;;;;7.10;4.27;;;0.20;99.90;;;;;;5011022;28;20230;-95
2022/03/03 06:24:35;;;;;;;5.97;3.70;;;0.30;99.90;;;;;;4993762;28;20222;-94
2022/03/03 06:27:01;;;;;;;4.80;4.40;;;0.40;99.90;;;;;;4992311;28;20297;-91
2022/03/03 06:29:27;;;;;;;6.53;5.50;;;0.50;99.90;;;;;;4994425;28;20194;-94
2022/03/03 06:31:53;;;;;;;6.57;5.90;;;0.80;99.90;;;;;;5027731;28;20219;-91
2022/03/03 06:34:20;;;;;;;3.60;3.40;;;1.10;99.90;;;;;;4994196;28;20225;-92
2022/03/03 06:36:47;;;;;;;9.70;5.83;;;1.40;99.90;;;;;;5027065;28;20813;-92
2022/03/03 06:39:13;;;;;;;10.43;9.40;;;1.60;99.90;;;;;;4981610;28;20240;-90
2022/03/03 06:41:38;;;;;;;10.50;6.90;;;1.70;99.90;;;;;;5003127;28;20194;-92
2022/03/03 06:44:05;;;;;;;5.67;5.23;;;2.10;99.90;;;;;;5000707;28;20234;-92
2022/03/03 06:46:30;;;;;;;9.60;8.80;;;2.20;99.90;;;;;;4976233;28;20219;-94
2022/03/03 06:48:56;;;;;;;7.00;5.80;;;2.40;99.90;;;;;;4954193;28;20242;-94
2022/03/03 06:51:22;;;;;;;5.50;4.37;;;2.60;99.90;;;;;;4975561;28;20230;-88
2022/03/03 06:53:54;;;;;;;11.00;6.17;;;2.70;99.90;;;;;;4990032;28;20184;-90
2022/03/03 06:56:25;;;;;;;8.40;7.73;;;2.80;99.90;;;;;;5003611;28;20282;-87
2022/03/03 06:58:54;;;;;;;19.20;6.33;;;3.20;99.90;;;;;;4995003;28;20219;-91
2022/03/03 07:01:22;;;;;;;6.60;5.97;;;3.40;99.90;;;;;;4993695;28;20697;-91
2022/03/03 07:03:48;;;;;;;10.17;6.70;;;3.40;99.90;;;;;;5002706;28;20302;-89
2022/03/03 07:06:15;;;;;;;8.10;7.33;;;3.50;99.90;;;;;;4988016;28;20223;-89
2022/03/03 07:08:42;;;;;;;7.93;7.30;;;3.40;99.90;;;;;;4972164;28;21051;-89
2022/03/03 07:11:08;;;;;;;5.23;4.60;;;3.30;99.90;;;;;;5002680;28;20216;-89
2022/03/03 07:13:34;;;;;;;8.70;5.20;;;3.40;99.90;;;;;;4971361;28;20218;-88
2022/03/03 07:16:17;;;;;;;8.17;7.40;;;3.20;99.90;;;;;;4971664;28;20664;-90
2022/03/03 07:18:47;;;;;;;7.13;6.03;;;3.40;99.90;;;;;;4995029;28;20246;-89
2022/03/03 07:21:30;;;;;;;10.47;4.90;;;3.40;99.90;;;;;;4992938;28;20243;-92
2022/03/03 07:24:15;;;;;;;4.83;4.30;;;3.40;99.90;;;;;;5000185;28;20517;-92
2022/03/03 07:26:43;;;;;;;13.30;8.53;;;3.40;99.90;;;;;;4985394;28;20195;-93
2022/03/03 07:29:11;;;;;;;6.70;6.07;;;3.20;99.90;;;;;;5001777;28;20701;-88
2022/03/03 07:31:46;;;;;;;7.47;6.43;;;3.40;99.90;;;;;;5001738;28;20627;-91
2022/03/03 07:34:13;;;;;;;6.97;5.47;;;3.70;99.90;;;;;;4984764;28;20327;-92
2022/03/03 07:36:42;;;;;;;8.77;5.07;;;3.50;99.90;;;;;;4984668;28;20219;-90
2022/03/03 07:39:13;;;;;;;11.83;6.73;;;3.50;99.90;;;;;;4986534;28;20257;-91
2022/03/03 07:41:42;;;;;;;9.67;7.17;;;3.40;99.90;;;;;;5015111;28;20187;-89
2022/03/03 07:44:10;;;;;;;10.10;6.93;;;3.40;99.90;;;;;;4989404;28;20198;-88
2022/03/03 07:46:36;;;;;;;7.87;7.07;;;3.40;99.90;;;;;;5006602;28;20676;-91
2022/03/03 07:49:02;;;;;;;8.70;7.90;;;3.50;99.90;;;;;;4989429;28;20314;-89
2022/03/03 07:51:28;;;;;;;9.87;6.80;;;4.40;99.90;;;;;;5002734;28;20286;-88
2022/03/03 07:53:54;;;;;;;17.33;8.53;;;5.50;99.90;;;;;;5005721;28;20198;-88
2022/03/03 07:56:43;;;;;;;8.43;7.10;;;5.90;99.90;;;;;;5015482;28;20310;-89
2022/03/03 07:59:12;;;;;;;10.60;6.73;;;6.10;99.90;;;;;;5004672;28;20218;-88
2022/03/03 08:01:38;;;;;;;8.60;7.23;;;7.10;99.90;;;;;;5005371;28;20214;-89
2022/03/03 08:04:04;;;;;;;16.07;8.13;;;8.10;99.90;;;;;;4987391;28;20223;-87
2022/03/03 08:06:32;;;;;;;9.07;6.77;;;8.20;99.90;;;;;;5005955;28;20305;-88
2022/03/03 08:09:01;;;;;;;14.67;7.73;;;8.40;99.90;;;;;;4998888;28;20837;-88
2022/03/03 08:11:28;;;;;;;7.80;6.00;;;8.70;99.90;;;;;;5003517;28;20672;-88
2022/03/03 08:13:56;;;;;;;10.27;8.80;;;8.40;99.90;;;;;;4989771;28;20230;-90
2022/03/03 08:16:22;;;;;;;6.23;5.57;;;7.90;99.90;;;;;;4991592;28;20225;-85
2022/03/03 08:18:48;;;;;;;13.53;8.33;;;6.90;99.90;;;;;;5003421;28;20253;-89
2022/03/03 08:21:15;;;;;;;11.00;6.33;;;7.30;99.90;;;;;;5007342;28;20658;-94
2022/03/03 08:23:43;;;;;;;10.57;7.23;;;7.40;99.90;;;;;;4996223;28;20202;-95
2022/03/03 08:26:12;;;;;;;10.27;5.97;;;7.70;99.90;;;;;;4996986;28;20219;-95
2022/03/03 08:28:43;;;;;;;13.17;8.40;;;8.10;99.90;;;;;;5007593;28;20814;-94
2022/03/03 08:31:16;;;;;;;8.83;7.77;;;8.10;99.90;;;;;;5006751;28;20313;-92
2022/03/03 08:33:54;;;;;;;13.97;8.77;;;7.90;99.90;;;;;;5013480;28;20372;-91
2022/03/03 08:36:37;;;;;;;15.63;8.27;;;7.60;99.90;;;;;;4997677;28;20230;-86
2022/03/03 08:39:05;;;;;;;19.17;10.37;;;7.50;99.90;;;;;;5003329;28;20237;-88
2022/03/03 08:41:35;;;;;;;9.63;6.77;;;7.80;99.90;;;;;;5014498;28;20214;-94
2022/03/03 08:44:03;;;;;;;11.27;8.67;;;7.90;99.90;;;;;;5015635;28;20645;-91
2022/03/03 08:46:32;;;;;;;10.47;8.40;;;7.90;99.90;;;;;;5014046;28;20229;-89
2022/03/03 08:49:00;;;;;;;16.57;7.70;;;8.00;99.90;;;;;;5003860;28;20264;-88
2022/03/03 08:51:28;;;;;;;10.77;7.83;;;8.40;99.90;;;;;;5004157;28;20223;-91
2022/03/03 08:53:55;;;;;;;11.23;8.20;;;8.40;99.90;;;;;;5005388;28;20214;-90
2022/03/03 08:56:22;;;;;;;11.57;8.13;;;7.40;99.90;;;;;;4990488;28;20226;-91
2022/03/03 08:58:49;;;;;;;12.17;8.93;;;7.90;99.90;;;;;;5003921;28;20234;-92
2022/03/03 09:01:15;;;;;;;10.30;7.00;;;7.70;99.90;;;;;;5003779;28;20253;-89
2022/03/03 09:03:40;;;;;;;12.60;7.43;;;6.80;99.90;;;;;;4987177;28;20696;-87
2022/03/03 09:06:07;;;;;;;10.83;6.63;;;6.20;99.90;;;;;;4988866;28;20286;-90
2022/03/03 09:08:32;;;;;;;12.50;7.87;;;5.90;99.90;;;;;;4986561;28;20219;-91
2022/03/03 09:10:58;;;;;;;6.53;5.57;;;5.80;99.90;;;;;;4991292;28;20276;-92
2022/03/03 09:13:24;;;;;;;10.87;6.53;;;5.80;99.90;;;;;;4991733;28;20218;-91
2022/03/03 09:15:51;;;;;;;8.03;6.83;;;5.90;99.90;;;;;;5015806;28;20223;-90
2022/03/03 09:18:16;;;;;;;8.70;5.40;;;5.80;99.90;;;;;;5010201;28;20238;-87
2022/03/03 09:20:42;;;;;;;7.43;4.67;;;5.80;99.90;;;;;;4988439;28;20188;-87
2022/03/03 09:23:08;;;;;;;11.03;7.57;;;5.70;99.90;;;;;;5004179;28;20218;-89
2022/03/03 09:25:36;;;;;;;3.83;3.27;;;5.80;99.90;;;;;;4986900;28;20214;-89
2022/03/03 09:28:03;;;;;;;5.93;5.33;;;5.90;99.90;;;;;;5003822;28;20265;-87
2022/03/03 09:30:29;;;;;;;4.70;4.30;;;5.90;99.90;;;;;;5001443;28;20211;-90
2022/03/03 09:32:55;;;;;;;6.03;4.53;;;6.00;99.90;;;;;;4987706;28;20182;-89
2022/03/03 09:35:21;;;;;;;10.77;7.40;;;5.90;99.90;;;;;;5013170;28;20196;-90
2022/03/03 09:37:47;;;;;;;5.20;4.70;;;6.00;99.90;;;;;;4995136;28;20345;-88
2022/03/03 09:40:13;;;;;;;7.47;5.03;;;6.30;99.90;;;;;;5003901;28;20234;-90
2022/03/03 09:42:39;;;;;;;10.20;7.77;;;6.30;99.90;;;;;;5004483;28;20218;-89
2022/03/03 09:45:07;;;;;;;7.97;5.33;;;6.30;99.90;;;;;;5003899;28;20187;-88
2022/03/03 09:47:36;;;;;;;6.53;5.50;;;6.50;99.90;;;;;;5006133;28;20214;-92
2022/03/03 09:50:02;;;;;;;5.47;5.07;;;6.60;99.90;;;;;;5005682;28;20238;-92
2022/03/03 09:52:30;;;;;;;8.50;5.13;;;6.60;99.90;;;;;;4987386;28;20223;-89
2022/03/03 09:54:57;;;;;;;6.57;5.97;;;6.70;99.90;;;;;;4989142;28;20221;-91
2022/03/03 09:57:24;;;;;;;4.40;4.00;;;6.80;99.90;;;;;;5004709;28;20704;-90
2022/03/03 09:59:53;;;;;;;7.07;4.77;;;6.90;99.90;;;;;;5012202;28;20179;-93
2022/03/03 10:02:19;;;;;;;5.03;3.90;;;7.00;99.90;;;;;;5021468;28;20882;-93
2022/03/03 10:04:45;;;;;;;13.67;5.27;;;7.10;99.90;;;;;;5002797;28;20668;-92
2022/03/03 10:07:11;;;;;;;10.17;7.73;;;7.10;99.90;;;;;;5014397;28;20222;-90
2022/03/03 10:12:26;;;;;;;8.13;4.80;;;7.20;99.90;;;;;;5009797;28;20229;-90
2022/03/03 10:14:57;;;;;;;10.27;5.30;;;7.40;99.90;;;;;;5005550;28;20195;-92
2022/03/03 10:17:37;;;;;;;5.87;5.23;;;7.40;99.90;;;;;;5004572;28;20631;-92
2022/03/03 10:20:05;;;;;;;7.17;3.43;;;7.40;99.90;;;;;;5004809;28;20264;-90
2022/03/03 10:22:47;;;;;;;6.97;4.33;;;7.60;99.90;;;;;;4997527;28;20223;-91
2022/03/03 10:25:26;;;;;;;9.77;5.37;;;7.70;99.90;;;;;;5020621;28;20683;-89
2022/03/03 10:27:52;;;;;;;4.50;4.10;;;7.90;99.90;;;;;;5015499;28;20318;-90
2022/03/03 10:30:18;;;;;;;8.37;5.27;;;7.90;99.90;;;;;;5002705;28;20226;-91
2022/03/03 10:32:47;;;;;;;6.87;4.83;;;8.00;99.90;;;;;;5003720;28;20658;-91
2022/03/03 10:35:20;;;;;;;5.40;3.40;;;8.50;99.90;;;;;;5001603;28;20222;-90
2022/03/03 10:37:47;;;;;;;9.10;4.93;;;8.70;99.90;;;;;;5013613;28;20234;-91
2022/03/03 10:40:15;;;;;;;4.90;4.40;;;9.00;99.90;;;;;;5004203;28;20226;-91
2022/03/03 10:42:44;;;;;;;6.53;5.87;;;9.00;99.90;;;;;;5004230;28;20755;-91
2022/03/03 10:45:17;;;;;;;5.23;4.20;;;9.60;99.90;;;;;;5003982;28;20222;-88
2022/03/03 10:48:06;;;;;;;8.87;7.10;;;9.50;99.90;;;;;;5004736;28;20305;-91
2022/03/03 10:50:48;;;;;;;12.70;6.00;;;9.50;99.90;;;;;;5015357;28;20333;-90
2022/03/03 10:53:18;;;;;;;8.17;6.77;;;9.70;99.90;;;;;;5001817;28;20733;-88
2022/03/03 10:56:08;;;;;;;10.20;6.47;;;9.60;99.90;;;;;;5002458;28;20214;-92
2022/03/03 10:58:49;;;;;;;9.23;6.87;;;9.60;99.90;;;;;;5002846;28;20333;-89
2022/03/03 11:01:22;;;;;;;8.70;4.87;;;9.80;99.90;;;;;;5002736;28;20218;-91
2022/03/03 11:03:53;;;;;;;5.70;4.80;;;9.90;99.90;;;;;;5008345;28;20218;-91
2022/03/03 11:06:24;;;;;;;11.00;6.07;;;10.00;99.90;;;;;;5008947;28;20221;-91
2022/03/03 11:08:52;;;;;;;11.23;6.63;;;10.20;99.90;;;;;;5009942;28;20214;-93
2022/03/03 11:11:20;;;;;;;10.97;6.97;;;10.30;99.90;;;;;;5010938;28;20187;-93
2022/03/03 11:13:49;;;;;;;7.07;5.60;;;10.30;99.90;;;;;;4995384;28;20253;-94
2022/03/03 11:16:25;;;;;;;10.70;6.10;;;10.30;99.90;;;;;;5011109;28;20578;-92
2022/03/03 11:18:51;;;;;;;11.43;6.40;;;10.50;99.90;;;;;;5027649;28;20325;-92
2022/03/03 11:21:18;;;;;;;14.70;6.07;;;10.60;99.90;;;;;;5010285;28;20582;-92
2022/03/03 11:23:46;;;;;;;11.90;5.20;;;10.80;99.90;;;;;;5027010;28;20192;-91
2022/03/03 11:26:40;;;;;;;8.37;5.43;;;10.70;99.90;;;;;;5008624;28;20694;-92
2022/03/03 11:29:13;;;;;;;11.23;5.13;;;10.70;99.90;;;;;;5009668;28;20230;-92
2022/03/03 11:31:41;;;;;;;9.70;5.33;;;10.70;99.90;;;;;;5009473;28;20227;-91
2022/03/03 11:34:29;;;;;;;7.13;6.43;;;10.90;99.90;;;;;;5009666;28;20219;-93
2022/03/03 11:37:20;;;;;;;10.53;6.33;;;10.90;99.90;;;;;;5005796;28;20215;-89
2022/03/03 11:39:54;;;;;;;10.60;6.30;;;11.00;99.90;;;;;;5000311;28;20227;-92
2022/03/03 11:42:21;;;;;;;10.67;6.00;;;11.10;99.90;;;;;;5005283;28;20223;-92
2022/03/03 11:44:50;;;;;;;9.87;5.27;;;11.30;99.90;;;;;;5017497;28;20190;-93
2022/03/03 11:47:18;;;;;;;6.33;4.57;;;11.40;99.90;;;;;;5004192;28;20237;-90
2022/03/03 11:50:06;;;;;;;9.03;4.93;;;11.20;99.90;;;;;;5005882;28;20222;-94
2022/03/03 11:52:36;;;;;;;8.90;5.23;;;11.40;99.90;;;;;;5004996;28;20827;-92
2022/03/03 11:55:28;;;;;;;8.13;5.07;;;11.30;99.90;;;;;;5019897;28;20291;-91
2022/03/03 11:58:08;;;;;;;5.30;4.37;;;11.30;99.90;;;;;;5014285;28;20214;-92
2022/03/03 12:00:39;;;;;;;14.20;5.13;;;11.30;99.90;;;;;;5004265;28;20306;-91
2022/03/03 12:03:07;;;;;;;9.43;5.93;;;11.20;99.90;;;;;;5004502;28;20238;-94
2022/03/03 12:05:35;;;;;;;7.30;5.27;;;11.00;99.90;;;;;;5006391;28;20455;-92
2022/03/03 12:08:12;;;;;;;7.03;4.60;;;11.10;99.90;;;;;;5004153;28;20229;-92
2022/03/03 12:10:56;;;;;;;8.47;3.33;;;11.20;99.90;;;;;;5022132;28;20222;-89
2022/03/03 12:13:32;;;;;;;4.77;4.27;;;11.10;99.90;;;;;;5004530;28;20452;-89
2022/03/03 12:16:33;;;;;;;9.67;5.97;;;11.20;99.90;;;;;;5020763;28;20215;-90
2022/03/03 12:19:05;;;;;;;8.77;5.60;;;11.20;99.90;;;;;;4996431;28;20219;-90
2022/03/03 12:21:37;;;;;;;8.00;4.73;;;11.20;99.90;;;;;;5015026;28;20215;-89
2022/03/03 12:24:17;;;;;;;12.60;4.83;;;10.90;99.90;;;;;;5014357;28;20194;-91
2022/03/03 12:26:55;;;;;;;8.20;5.07;;;11.00;99.90;;;;;;5022644;28;20218;-88
2022/03/03 12:29:57;;;;;;;7.00;4.53;;;11.10;99.90;;;;;;5004889;28;20246;-88
2022/03/03 12:32:35;;;;;;;8.50;4.67;;;10.90;99.90;;;;;;4924863;29;20228;-88
2022/03/03 12:35:24;;;;;;;5.70;4.27;;;10.80;99.90;;;;;;5004492;28;20222;-88
2022/03/03 12:37:50;;;;;;;7.20;4.80;;;10.70;99.90;;;;;;5020125;28;20234;-89
2022/03/03 12:40:25;;;;;;;6.03;4.10;;;10.70;99.90;;;;;;4990096;28;20707;-90
2022/03/03 12:42:51;;;;;;;8.13;5.90;;;10.60;99.90;;;;;;5006569;28;20209;-91
2022/03/03 12:45:21;;;;;;;6.33;4.53;;;10.60;99.90;;;;;;5005300;28;20219;-90
2022/03/03 12:47:53;;;;;;;7.63;5.00;;;10.70;99.90;;;;;;5006669;28;20210;-90
2022/03/03 12:50:27;;;;;;;10.83;5.80;;;10.60;99.90;;;;;;5024688;28;20254;-91
2022/03/03 12:53:08;;;;;;;6.90;5.00;;;10.50;99.90;;;;;;5006784;28;20213;-91
2022/03/03 12:55:48;;;;;;;8.40;5.03;;;10.30;99.90;;;;;;5006439;28;20210;-89
2022/03/03 12:58:17;;;;;;;17.73;6.07;;;10.30;99.90;;;;;;5007980;28;20226;-88
2022/03/03 13:00:45;;;;;;;9.30;6.83;;;10.40;99.90;;;;;;5006484;28;20229;-89
2022/03/03 13:03:12;;;;;;;11.23;6.57;;;10.40;99.90;;;;;;4989856;28;20245;-90